Time;durP1;ratioP1;P1;durP2;ratioP2;P2;SDS_P1;SDS_P2;PMS_P1;PMS_P2;Temp;Humidity;BMP_temperature;BMP_pressure;BME280_temperature;BME280_humidity;BME280_pressure;Samples;Min_cycle;Max_cycle;Signal;HPM_P1;HPM_P2
2022/08/02 00:01:34;;;;;;;3.95;3.65;;;;;;;18.36;100.00;99699.97;5051608;28;20038;-76
2022/08/02 00:03:59;;;;;;;4.28;3.60;;;;;;;18.37;100.00;99703.47;5051811;28;20060;-76
2022/08/02 00:06:25;;;;;;;4.57;3.80;;;;;;;18.40;100.00;99700.59;5051112;28;20045;-76
2022/08/02 00:08:50;;;;;;;5.07;3.95;;;;;;;18.41;100.00;99702.25;5051913;28;20047;-76
2022/08/02 00:11:16;;;;;;;4.20;3.80;;;;;;;18.42;100.00;99701.31;5052027;28;20534;-76
2022/08/02 00:13:41;;;;;;;4.25;3.70;;;;;;;18.37;100.00;99683.22;5051543;28;20024;-76
2022/08/02 00:16:06;;;;;;;3.85;3.53;;;;;;;18.44;100.00;99704.66;5051968;28;20491;-76
2022/08/02 00:18:32;;;;;;;3.53;3.22;;;;;;;18.47;100.00;99709.72;5051311;28;20041;-76
2022/08/02 00:20:57;;;;;;;3.67;3.38;;;;;;;18.44;100.00;99696.75;5051549;28;20029;-76
2022/08/02 00:23:23;;;;;;;5.03;3.80;;;;;;;18.49;100.00;99720.97;5051799;28;20121;-76
2022/08/02 00:25:48;;;;;;;4.57;3.75;;;;;;;18.50;100.00;99720.03;5051761;28;20040;-76
2022/08/02 00:28:14;;;;;;;4.40;4.00;;;;;;;18.44;100.00;99720.50;5051748;28;20029;-76
2022/08/02 00:30:39;;;;;;;5.30;4.28;;;;;;;18.40;100.00;99713.78;5051549;28;20032;-75
2022/08/02 00:33:05;;;;;;;6.03;4.22;;;;;;;18.38;100.00;99711.25;5051618;28;20032;-76
2022/08/02 00:35:31;;;;;;;4.38;3.97;;;;;;;18.45;100.00;99723.00;5051180;28;20124;-76
2022/08/02 00:37:57;;;;;;;5.45;4.70;;;;;;;18.38;100.00;99719.19;5051667;28;20142;-76
2022/08/02 00:40:23;;;;;;;4.50;4.10;;;;;;;18.40;100.00;99716.41;5051644;28;20458;-76
2022/08/02 00:43:05;;;;;;;5.28;4.15;;;;;;;18.40;100.00;99721.69;5051561;28;20036;-76
2022/08/02 00:45:31;;;;;;;6.22;4.35;;;;;;;18.38;100.00;99710.44;5051156;28;20488;-77
2022/08/02 00:47:56;;;;;;;4.82;4.10;;;;;;;18.43;100.00;99724.94;5051317;28;20056;-76
2022/08/02 00:50:21;;;;;;;6.53;4.78;;;;;;;18.42;100.00;99720.63;5033461;28;20049;-77
2022/08/02 00:52:47;;;;;;;5.75;5.25;;;;;;;18.38;100.00;99707.78;5053978;28;20055;-76
2022/08/02 00:55:12;;;;;;;5.32;4.82;;;;;;;18.35;100.00;99708.03;5055224;28;20536;-76
2022/08/02 00:57:37;;;;;;;4.88;4.32;;;;;;;18.33;100.00;99699.38;5054924;28;20445;-76
2022/08/02 01:00:04;;;;;;;6.00;4.30;;;;;;;18.32;100.00;99706.44;5055011;28;20057;-76
2022/08/02 01:02:29;;;;;;;5.65;4.07;;;;;;;18.35;100.00;99723.84;5054669;28;20423;-77
2022/08/02 01:04:55;;;;;;;4.25;3.92;;;;;;;18.33;100.00;99713.44;5054804;28;20049;-76
2022/08/02 01:07:20;;;;;;;5.63;4.10;;;;;;;18.26;100.00;99714.03;5054855;28;20032;-77
2022/08/02 01:09:46;;;;;;;5.05;3.78;;;;;;;18.31;100.00;99722.41;5054928;28;20027;-76
2022/08/02 01:12:12;;;;;;;5.32;4.40;;;;;;;18.29;100.00;99717.25;5054890;28;20039;-76
2022/08/02 01:14:39;;;;;;;4.43;3.85;;;;;;;18.23;100.00;99707.19;5054457;28;20031;-76
2022/08/02 01:17:16;;;;;;;4.72;4.10;;;;;;;18.21;100.00;99709.09;5054546;28;20035;-76
2022/08/02 01:20:18;;;;;;;4.72;4.18;;;;;;;18.25;100.00;99733.44;5054521;28;20032;-76
2022/08/02 01:23:03;;;;;;;6.10;4.50;;;;;;;18.25;100.00;99728.16;5054353;28;20483;-76
2022/08/02 01:25:57;;;;;;;4.55;4.15;;;;;;;18.26;100.00;99722.75;5054221;28;20025;-76
2022/08/02 01:28:49;;;;;;;3.85;3.53;;;;;;;18.26;100.00;99735.94;4992556;28;20109;-76
2022/08/02 01:31:45;;;;;;;4.70;3.50;;;;;;;18.20;100.00;99717.94;4992832;28;20440;-76
2022/08/02 01:34:29;;;;;;;5.10;4.20;;;;;;;18.18;100.00;99712.81;4992848;28;20125;-76
2022/08/02 01:37:18;;;;;;;4.70;4.13;;;;;;;18.17;100.00;99712.94;4992754;28;20034;-77
2022/08/02 01:39:45;;;;;;;5.47;4.38;;;;;;;18.18;100.00;99720.72;4992166;28;20081;-77
2022/08/02 01:42:11;;;;;;;4.50;4.07;;;;;;;18.02;100.00;99706.19;4992626;28;20026;-77
2022/08/02 01:44:40;;;;;;;4.78;4.35;;;;;;;18.03;100.00;99713.97;4992403;28;20037;-77
2022/08/02 01:47:09;;;;;;;4.75;4.25;;;;;;;18.04;100.00;99726.22;4992585;28;20062;-77
2022/08/02 01:49:38;;;;;;;5.20;4.30;;;;;;;17.94;100.00;99712.88;4992270;28;20153;-77
2022/08/02 01:52:21;;;;;;;4.45;4.05;;;;;;;17.98;100.00;99720.56;4992378;28;20372;-77
2022/08/02 01:55:15;;;;;;;5.75;4.45;;;;;;;17.95;100.00;99727.75;4992275;28;20035;-76
2022/08/02 01:57:46;;;;;;;4.85;4.40;;;;;;;17.92;100.00;99730.63;4934236;29;20042;-76
2022/08/02 02:00:13;;;;;;;4.80;4.40;;;;;;;17.85;100.00;99721.50;4934504;29;20052;-76
2022/08/02 02:02:43;;;;;;;5.50;4.95;;;;;;;17.80;100.00;99714.91;4933975;29;20039;-76
2022/08/02 02:05:14;;;;;;;5.53;3.97;;;;;;;17.73;100.00;99696.03;4940767;29;20202;-76
2022/08/02 02:07:41;;;;;;;6.80;4.70;;;;;;;17.71;100.00;99708.50;4937190;29;20042;-76
2022/08/02 02:10:10;;;;;;;5.07;4.40;;;;;;;17.74;100.00;99710.03;4953384;29;20039;-76
2022/08/02 02:12:38;;;;;;;4.97;4.47;;;;;;;17.71;100.00;99709.34;4953102;29;20093;-76
2022/08/02 02:15:08;;;;;;;6.93;4.63;;;;;;;17.78;100.00;99719.41;4953218;29;20057;-76
2022/08/02 02:17:34;;;;;;;4.97;4.47;;;;;;;17.69;100.00;99707.75;4952890;28;20027;-76
2022/08/02 02:20:01;;;;;;;5.30;4.80;;;;;;;17.67;100.00;99717.59;4953193;29;20120;-76
2022/08/02 02:22:27;;;;;;;5.03;4.63;;;;;;;17.64;100.00;99709.91;4952817;29;20102;-76
2022/08/02 02:24:52;;;;;;;4.93;4.50;;;;;;;17.65;100.00;99722.94;4953004;29;20027;-76
2022/08/02 02:27:19;;;;;;;5.18;4.68;;;;;;;17.57;100.00;99714.81;4936934;29;20122;-76
2022/08/02 02:29:49;;;;;;;4.75;4.30;;;;;;;17.60;100.00;99729.53;4952761;29;20550;-76
2022/08/02 02:32:16;;;;;;;7.10;5.20;;;;;;;17.59;100.00;99728.69;4952901;29;20495;-76
2022/08/02 02:34:44;;;;;;;5.97;4.78;;;;;;;17.67;100.00;99736.03;5007955;28;20044;-76
2022/08/02 02:37:19;;;;;;;5.65;4.80;;;;;;;17.64;100.00;99726.53;5053420;28;20029;-76
2022/08/02 02:39:47;;;;;;;10.82;4.60;;;;;;;17.66;100.00;99734.34;5053004;28;20035;-76
2022/08/02 02:42:15;;;;;;;7.10;4.50;;;;;;;17.61;100.00;99726.78;5053098;28;20028;-76
2022/08/02 02:44:42;;;;;;;5.85;4.97;;;;;;;17.57;100.00;99730.59;5052690;28;20024;-76
2022/08/02 02:47:10;;;;;;;6.35;5.18;;;;;;;17.58;100.00;99749.88;5053225;28;20086;-76
2022/08/02 02:49:37;;;;;;;5.95;5.03;;;;;;;17.51;100.00;99735.47;5052856;28;20024;-76
2022/08/02 02:52:05;;;;;;;5.90;5.32;;;;;;;17.41;100.00;99730.06;5052987;28;20033;-76
2022/08/02 02:54:33;;;;;;;5.82;5.28;;;;;;;17.36;100.00;99725.13;5052707;28;20087;-76
2022/08/02 02:56:59;;;;;;;7.97;5.22;;;;;;;17.34;100.00;99726.19;5052814;28;20047;-76
2022/08/02 02:59:25;;;;;;;8.65;5.80;;;;;;;17.34;100.00;99745.44;5052745;28;20040;-76
2022/08/02 03:01:52;;;;;;;5.65;5.05;;;;;;;17.25;100.00;99732.13;5052810;28;20468;-76
2022/08/02 03:04:19;;;;;;;6.25;5.35;;;;;;;17.20;100.00;99735.09;5052817;28;20061;-76
2022/08/02 03:06:45;;;;;;;6.35;5.00;;;;;;;17.16;100.00;99728.38;5052518;28;20059;-76
2022/08/02 03:09:10;;;;;;;5.05;4.63;;;;;;;17.20;100.00;99735.94;5052713;28;20020;-76
2022/08/02 03:11:37;;;;;;;7.28;5.50;;;;;;;17.14;100.00;99733.72;5052345;28;20025;-76
2022/08/02 03:14:04;;;;;;;8.23;5.72;;;;;;;17.17;100.00;99740.56;5052182;28;20516;-76
2022/08/02 03:16:30;;;;;;;6.30;5.70;;;;;;;17.08;100.00;99730.72;5052273;28;20029;-76
2022/08/02 03:18:57;;;;;;;6.75;6.05;;;;;;;17.06;100.00;99740.50;5052562;28;20032;-76
2022/08/02 03:21:23;;;;;;;7.97;5.93;;;;;;;17.08;100.00;99741.25;5052506;28;20025;-76
2022/08/02 03:23:49;;;;;;;6.32;5.82;;;;;;;17.05;100.00;99738.81;5052153;28;20041;-76
2022/08/02 03:26:15;;;;;;;6.70;6.00;;;;;;;17.03;100.00;99749.47;5052162;28;20036;-76
2022/08/02 03:28:42;;;;;;;6.75;6.00;;;;;;;16.97;100.00;99744.63;5052261;28;20492;-76
2022/08/02 03:31:08;;;;;;;6.90;6.20;;;;;;;16.96;100.00;99742.97;5052621;28;20175;-76
2022/08/02 03:33:34;;;;;;;9.63;6.60;;;;;;;16.95;100.00;99744.75;5052060;28;20104;-76
2022/08/02 03:36:12;;;;;;;7.32;6.50;;;;;;;16.95;100.00;99744.75;5052178;28;20491;-76
2022/08/02 03:38:39;;;;;;;9.18;6.57;;;;;;;16.93;100.00;99746.63;5051939;28;20021;-76
2022/08/02 03:41:06;;;;;;;7.53;6.88;;;;;;;16.93;100.00;99753.69;5052105;28;20029;-77
2022/08/02 03:43:32;;;;;;;7.45;6.78;;;;;;;16.90;100.00;99746.88;5051992;28;20376;-76
2022/08/02 03:46:00;;;;;;;7.13;6.43;;;;;;;16.86;100.00;99736.69;5052100;28;20086;-76
2022/08/02 03:48:26;;;;;;;8.85;6.50;;;;;;;16.88;100.00;99748.75;5052057;28;20108;-76
2022/08/02 03:50:52;;;;;;;7.25;6.55;;;;;;;16.87;100.00;99743.63;5052065;28;20040;-76
2022/08/02 03:53:18;;;;;;;9.70;7.63;;;;;;;16.90;100.00;99753.94;5051900;28;20033;-76
2022/08/02 03:55:44;;;;;;;8.38;6.82;;;;;;;16.92;100.00;99762.53;5051679;28;20025;-76
2022/08/02 03:58:17;;;;;;;8.07;6.75;;;;;;;17.03;100.00;99772.31;5051806;28;20380;-76
2022/08/02 04:00:42;;;;;;;8.75;6.78;;;;;;;17.06;100.00;99774.72;5051718;28;20025;-76
2022/08/02 04:03:07;;;;;;;8.02;7.25;;;;;;;17.06;100.00;99777.34;5051887;28;20131;-76
2022/08/02 04:05:33;;;;;;;7.82;6.78;;;;;;;17.05;100.00;99780.94;5051602;28;20544;-76
2022/08/02 04:07:58;;;;;;;7.45;6.53;;;;;;;17.14;100.00;99785.53;5051653;28;20428;-76
2022/08/02 04:10:23;;;;;;;9.35;6.80;;;;;;;17.16;100.00;99778.38;5051666;28;20421;-76
2022/08/02 04:12:49;;;;;;;7.85;7.10;;;;;;;17.35;100.00;99798.94;5051870;28;20112;-76
2022/08/02 04:15:14;;;;;;;7.53;6.82;;;;;;;17.49;100.00;99797.94;5051771;28;20029;-76
2022/08/02 04:17:49;;;;;;;8.63;6.75;;;;;;;17.65;100.00;99796.69;5051393;28;20112;-76
2022/08/02 04:20:26;;;;;;;7.85;6.68;;;;;;;18.08;100.00;99798.81;5051788;28;20044;-77
2022/08/02 04:23:01;;;;;;;10.13;7.22;;;;;;;18.59;100.00;99802.88;5051564;28;20025;-77
2022/08/02 04:25:27;;;;;;;7.53;6.32;;;;;;;19.05;100.00;99802.78;5051728;28;20024;-77
2022/08/02 04:27:54;;;;;;;7.47;6.75;;;;;;;19.68;100.00;99798.56;5054016;28;20028;-77
2022/08/02 04:30:20;;;;;;;8.75;6.13;;;;;;;20.65;100.00;99811.66;5055640;28;20107;-77
2022/08/02 04:32:45;;;;;;;6.90;5.80;;;;;;;21.32;100.00;99802.28;5055360;28;20536;-77
2022/08/02 04:35:11;;;;;;;8.57;6.00;;;;;;;21.77;100.00;99825.63;5055373;28;20111;-77
2022/08/02 04:37:37;;;;;;;8.43;6.07;;;;;;;21.89;100.00;99817.41;5055407;28;20025;-78
2022/08/02 04:40:08;;;;;;;6.55;5.75;;;;;;;21.96;100.00;99820.34;5055558;28;20041;-77
2022/08/02 04:42:33;;;;;;;6.88;5.47;;;;;;;22.10;100.00;99833.16;5019885;28;20052;-78
2022/08/02 04:44:59;;;;;;;7.07;5.03;;;;;;;22.22;100.00;99823.28;5055550;28;20408;-77
2022/08/02 04:47:25;;;;;;;5.88;5.28;;;;;;;22.42;100.00;99827.56;5055270;28;20040;-77
2022/08/02 04:49:50;;;;;;;6.60;5.80;;;;;;;22.74;100.00;99805.09;5054903;28;20029;-77
2022/08/02 04:52:15;;;;;;;6.65;5.15;;;;;;;23.59;100.00;99822.56;5055342;28;20025;-77
2022/08/02 04:54:41;;;;;;;6.18;4.55;;;;;;;24.28;96.85;99820.22;5055048;28;20116;-77
2022/08/02 04:57:53;;;;;;;5.95;5.15;;;;;;;24.77;92.82;99837.34;5055215;28;20029;-77
2022/08/02 04:59:51;;;;;;;6.38;5.20;;;;;;;24.60;92.13;99836.44;5054642;28;20033;-77
2022/08/02 05:02:17;;;;;;;5.80;5.28;;;;;;;24.33;92.59;99825.91;5054915;28;20021;-78
2022/08/02 05:04:42;;;;;;;6.40;5.30;;;;;;;24.28;92.82;99833.53;5054819;28;20051;-77
2022/08/02 05:07:07;;;;;;;5.72;4.43;;;;;;;24.27;93.28;99827.38;5055056;28;20594;-78
2022/08/02 05:09:33;;;;;;;6.65;5.03;;;;;;;24.39;92.31;99833.28;5054729;28;20033;-78
2022/08/02 05:11:58;;;;;;;5.18;4.68;;;;;;;24.79;91.08;99840.72;5054867;28;20079;-78
2022/08/02 05:14:23;;;;;;;5.93;4.80;;;;;;;25.87;86.69;99844.47;5054688;28;20107;-78
2022/08/02 05:16:49;;;;;;;5.00;4.50;;;;;;;27.18;81.63;99851.47;5054601;28;20292;-78
2022/08/02 05:19:14;;;;;;;5.25;4.50;;;;;;;27.84;77.33;99829.56;5054885;28;20032;-78
2022/08/02 05:21:39;;;;;;;6.38;4.75;;;;;;;27.46;76.98;99839.31;5054438;28;20112;-78
2022/08/02 05:24:05;;;;;;;5.13;4.43;;;;;;;26.71;79.77;99844.25;5054729;28;20036;-78
2022/08/02 05:26:31;;;;;;;5.38;4.47;;;;;;;26.35;80.47;99840.13;5054553;28;20104;-78
2022/08/02 05:28:56;;;;;;;9.30;5.10;;;;;;;26.23;80.84;99845.97;5054363;28;20083;-78
2022/08/02 05:31:21;;;;;;;5.30;4.80;;;;;;;26.07;82.11;99842.28;5054365;28;20431;-78
2022/08/02 05:33:47;;;;;;;6.10;4.30;;;;;;;26.44;81.11;99845.44;5054102;28;20108;-78
2022/08/02 05:36:12;;;;;;;4.88;4.00;;;;;;;27.79;76.54;99852.53;5054602;28;20032;-77
2022/08/02 05:38:38;;;;;;;4.30;3.83;;;;;;;28.80;72.32;99860.19;5053877;28;20086;-78
2022/08/02 05:41:04;;;;;;;5.32;4.45;;;;;;;28.63;70.83;99869.41;5054484;28;20049;-77
2022/08/02 05:43:30;;;;;;;8.38;4.82;;;;;;;27.59;73.54;99858.28;5054549;28;20071;-77
2022/08/02 05:45:55;;;;;;;5.45;4.95;;;;;;;26.96;75.99;99871.75;5053884;28;20025;-77
2022/08/02 05:48:21;;;;;;;6.10;4.72;;;;;;;26.24;78.10;99869.81;5054090;28;20095;-77
2022/08/02 05:50:52;;;;;;;5.78;4.75;;;;;;;25.84;80.20;99887.50;5054031;28;20052;-77
2022/08/02 05:53:34;;;;;;;5.30;4.78;;;;;;;25.74;81.39;99891.25;5054151;28;20068;-77
2022/08/02 05:56:17;;;;;;;6.60;4.95;;;;;;;26.08;80.96;99880.50;5053907;28;20029;-77
2022/08/02 05:58:49;;;;;;;4.95;4.30;;;;;;;27.39;75.93;99872.28;5053832;28;20033;-77
2022/08/02 06:01:26;;;;;;;6.07;5.15;;;;;;;27.24;76.37;99888.22;5053998;28;20025;-77
2022/08/02 06:03:55;;;;;;;7.07;5.20;;;;;;;26.94;77.18;99895.97;5053719;28;20021;-77
2022/08/02 06:06:23;;;;;;;6.85;5.07;;;;;;;26.81;77.68;99891.19;5053641;28;20049;-77
2022/08/02 06:08:54;;;;;;;5.93;4.95;;;;;;;26.83;77.24;99888.31;5053456;28;20040;-77
2022/08/02 06:11:30;;;;;;;5.28;4.78;;;;;;;26.90;77.52;99897.34;5053915;28;20028;-77
2022/08/02 06:13:55;;;;;;;6.55;4.10;;;;;;;27.08;77.45;99892.59;5053637;28;20021;-77
2022/08/02 06:16:25;;;;;;;5.57;4.90;;;;;;;27.10;75.59;99900.50;5053594;28;20044;-77
2022/08/02 06:18:51;;;;;;;;;;;;;;;27.09;76.04;99901.44;5053032;28;20025;-77
2022/08/02 06:21:20;;;;;;;4.97;4.28;;;;;;;27.15;75.77;99892.78;5052410;28;20010;-77
2022/08/02 06:23:46;;;;;;;7.40;4.53;;;;;;;27.35;75.81;99894.03;5053197;28;20064;-77
2022/08/02 06:26:13;;;;;;;5.95;4.80;;;;;;;27.63;73.90;99876.66;5053478;28;20106;-77
2022/08/02 06:28:39;;;;;;;4.72;4.10;;;;;;;28.07;73.14;99896.50;5053310;28;20033;-77
2022/08/02 06:31:06;;;;;;;5.95;4.35;;;;;;;28.73;71.82;99896.78;5053349;28;20052;-77
2022/08/02 06:33:31;;;;;;;5.38;4.38;;;;;;;28.97;69.61;99898.41;5053307;28;20029;-77
2022/08/02 06:36:03;;;;;;;5.15;3.92;;;;;;;29.45;68.29;99896.13;5052949;28;20029;-77
2022/08/02 06:38:38;;;;;;;4.22;3.80;;;;;;;30.03;66.84;99901.56;5052676;28;20032;-77
2022/08/02 06:41:09;;;;;;;5.35;4.03;;;;;;;30.36;64.38;99906.47;5053301;28;20028;-78
2022/08/02 06:43:53;;;;;;;5.07;3.90;;;;;;;30.44;64.02;99899.09;5053286;28;20035;-78
2022/08/02 06:46:19;;;;;;;5.72;3.97;;;;;;;31.13;61.21;99911.78;5052869;28;20387;-78
2022/08/02 06:48:44;;;;;;;4.85;3.25;;;;;;;32.85;56.20;99897.06;5052670;28;20032;-78
2022/08/02 06:51:11;;;;;;;5.32;3.28;;;;;;;36.56;44.67;99903.72;5052664;28;20094;-78
2022/08/02 06:53:36;;;;;;;4.10;3.22;;;;;;;39.30;37.87;99898.97;5053004;28;20083;-79
2022/08/02 06:56:02;;;;;;;3.08;2.78;;;;;;;40.29;35.90;99910.66;5052814;28;20029;-78
2022/08/02 06:58:27;;;;;;;5.15;3.40;;;;;;;42.36;32.84;99902.75;5052896;28;20384;-79
2022/08/02 07:00:53;;;;;;;3.65;2.97;;;;;;;42.75;30.95;99904.91;5052507;28;20028;-79
2022/08/02 07:03:18;;;;;;;3.97;3.03;;;;;;;43.43;29.59;99904.38;5017354;28;20041;-78
2022/08/02 07:05:47;;;;;;;3.88;3.03;;;;;;;44.20;27.44;99897.28;5052441;28;20049;-76
2022/08/02 07:08:12;;;;;;;4.35;2.80;;;;;;;42.48;29.73;99891.50;5052824;28;20474;-76
2022/08/02 07:10:38;;;;;;;3.78;2.80;;;;;;;42.05;29.69;99890.94;5052638;28;20029;-76
2022/08/02 07:13:03;;;;;;;3.67;2.85;;;;;;;43.31;28.92;99886.31;5052685;28;20052;-76
2022/08/02 07:15:29;;;;;;;2.88;2.60;;;;;;;44.76;26.72;99883.03;5052359;28;20033;-76
2022/08/02 07:17:54;;;;;;;4.20;2.88;;;;;;;45.71;25.31;99886.75;5052017;28;20079;-76
2022/08/02 07:20:19;;;;;;;4.57;2.85;;;;;;;45.81;24.71;99885.81;5052485;28;20087;-76
2022/08/02 07:22:44;;;;;;;3.33;2.58;;;;;;;45.39;25.14;99886.69;5052188;28;20112;-75
2022/08/02 07:25:10;;;;;;;2.80;2.53;;;;;;;45.23;24.91;99875.88;5052267;28;20456;-75
2022/08/02 07:27:35;;;;;;;2.63;2.13;;;;;;;45.60;24.50;99881.69;5052305;28;20461;-75
2022/08/02 07:30:01;;;;;;;4.60;2.80;;;;;;;46.52;23.67;99884.59;5051890;28;20487;-75
2022/08/02 07:32:30;;;;;;;3.10;2.35;;;;;;;47.45;22.88;99881.63;5062448;28;20533;-76
2022/08/02 07:34:57;;;;;;;2.53;2.33;;;;;;;47.36;22.58;99882.66;5072049;28;20039;-76
2022/08/02 07:37:25;;;;;;;6.93;2.42;;;;;;;47.45;22.58;99887.16;5072181;28;20028;-76
2022/08/02 07:39:50;;;;;;;2.75;2.38;;;;;;;47.90;22.18;99889.94;5067939;28;20040;-76
2022/08/02 07:42:15;;;;;;;3.17;2.03;;;;;;;48.43;21.60;99877.31;5052064;28;20025;-75
2022/08/02 07:44:41;;;;;;;2.30;2.00;;;;;;;48.41;21.86;99876.81;5051723;28;20637;-78
2022/08/02 07:47:06;;;;;;;2.35;1.70;;;;;;;48.62;21.51;99877.03;5052072;28;20495;-77
2022/08/02 07:49:32;;;;;;;2.00;1.58;;;;;;;49.98;20.23;99867.63;5048604;28;20094;-75
2022/08/02 07:51:57;;;;;;;2.20;1.85;;;;;;;50.88;19.51;99873.06;5051741;28;20039;-75
2022/08/02 07:54:23;;;;;;;2.92;1.73;;;;;;;48.89;20.03;99874.09;5052004;28;20033;-74
2022/08/02 07:56:48;;;;;;;2.88;1.70;;;;;;;45.29;22.95;99862.88;5051671;28;20040;-75
2022/08/02 07:59:14;;;;;;;2.10;1.90;;;;;;;46.79;21.58;99865.66;5051708;28;20033;-75
2022/08/02 08:01:40;;;;;;;1.70;1.60;;;;;;;48.75;20.67;99867.81;5052065;28;20029;-75
2022/08/02 08:04:06;;;;;;;1.90;1.80;;;;;;;50.46;19.08;99877.63;5051648;28;20108;-75
2022/08/02 08:06:31;;;;;;;2.03;1.73;;;;;;;50.68;18.93;99882.13;5051607;28;20143;-75
2022/08/02 08:08:57;;;;;;;2.50;1.40;;;;;;;48.50;18.65;99887.88;5051442;28;20456;-75
2022/08/02 08:11:23;;;;;;;2.25;1.35;;;;;;;44.46;21.73;99875.09;5051760;28;20490;-75
2022/08/02 08:13:49;;;;;;;3.17;1.70;;;;;;;43.67;22.82;99877.94;5051396;28;20044;-74
2022/08/02 08:16:15;;;;;;;1.35;1.25;;;;;;;42.70;23.56;99872.88;5051444;28;20029;-75
2022/08/02 08:18:40;;;;;;;1.70;1.20;;;;;;;43.61;21.76;99879.06;5051346;28;20388;-74
2022/08/02 08:21:06;;;;;;;1.30;1.20;;;;;;;44.93;21.55;99866.09;5051676;28;20380;-74
2022/08/02 08:23:31;;;;;;;3.05;1.50;;;;;;;44.60;21.52;99867.81;5051600;28;20021;-77
2022/08/02 08:25:57;;;;;;;1.73;1.10;;;;;;;43.04;22.00;99875.78;5051580;28;20025;-77
2022/08/02 08:28:22;;;;;;;1.33;1.23;;;;;;;41.10;24.62;99870.22;5051410;28;20029;-77
2022/08/02 08:30:48;;;;;;;2.65;1.90;;;;;;;38.81;26.52;99870.78;5051396;28;20102;-77
2022/08/02 08:33:13;;;;;;;1.60;1.50;;;;;;;36.52;29.20;99867.25;5051339;28;20025;-76
2022/08/02 08:35:39;;;;;;;2.60;1.40;;;;;;;34.68;30.35;99879.28;5051608;28;20040;-77
2022/08/02 08:38:05;;;;;;;2.35;1.60;;;;;;;33.14;32.30;99866.91;5051271;28;20116;-76
2022/08/02 08:40:30;;;;;;;2.03;1.67;;;;;;;31.89;34.44;99862.41;5051379;28;20115;-76
2022/08/02 08:42:56;;;;;;;2.22;1.63;;;;;;;31.15;36.54;99879.31;5051067;28;20021;-76
2022/08/02 08:45:21;;;;;;;2.50;1.52;;;;;;;30.50;38.49;99863.34;5051507;28;20451;-76
2022/08/02 08:47:52;;;;;;;2.92;1.63;;;;;;;30.08;38.61;99856.16;5051298;28;20056;-76
2022/08/02 08:50:24;;;;;;;1.73;1.60;;;;;;;29.73;39.27;99877.50;5051388;28;20116;-76
2022/08/02 08:52:59;;;;;;;3.28;1.70;;;;;;;29.11;40.56;99871.78;5051122;28;20037;-77
2022/08/02 08:55:26;;;;;;;4.50;1.88;;;;;;;28.68;41.88;99883.09;5051229;28;20469;-76
2022/08/02 08:57:53;;;;;;;3.08;1.98;;;;;;;28.07;42.64;99875.06;5051292;28;20032;-77
2022/08/02 09:00:19;;;;;;;3.75;1.77;;;;;;;27.66;43.19;99879.00;5051372;28;20336;-76
2022/08/02 09:02:45;;;;;;;1.60;1.50;;;;;;;27.53;43.96;99892.94;5051178;28;20437;-76
2022/08/02 09:05:13;;;;;;;4.32;1.83;;;;;;;27.50;44.60;99888.78;5051074;28;20052;-76
2022/08/02 09:07:41;;;;;;;3.08;1.67;;;;;;;27.40;45.17;99880.16;5051196;28;20036;-77
2022/08/02 09:10:36;;;;;;;4.07;2.00;;;;;;;27.47;44.52;99897.13;5050873;28;20279;-76
2022/08/02 09:13:12;;;;;;;3.20;1.90;;;;;;;27.48;45.76;99885.44;5052399;28;20043;-77
2022/08/02 09:15:39;;;;;;;2.90;1.83;;;;;;;27.51;45.49;99890.44;5054821;28;20037;-77
2022/08/02 09:18:06;;;;;;;3.00;1.70;;;;;;;27.46;44.13;99870.56;5054357;28;20507;-77
2022/08/02 09:20:33;;;;;;;2.30;1.77;;;;;;;27.45;44.82;99891.16;5054469;28;20029;-77
2022/08/02 09:23:06;;;;;;;2.47;1.83;;;;;;;27.25;45.73;99900.59;5054583;28;20029;-76
2022/08/02 09:25:32;;;;;;;2.25;2.05;;;;;;;26.92;46.41;99895.31;5054484;28;20503;-77
2022/08/02 09:27:58;;;;;;;4.32;1.98;;;;;;;26.92;46.57;99900.66;5054495;28;20031;-76
2022/08/02 09:30:25;;;;;;;2.90;1.77;;;;;;;26.95;46.56;99902.16;5054630;28;20108;-77
2022/08/02 09:32:51;;;;;;;1.75;1.60;;;;;;;26.95;46.39;99889.63;5054264;28;20021;-76
2022/08/02 09:35:37;;;;;;;2.83;1.60;;;;;;;26.84;46.17;99893.50;5054345;28;20090;-77
2022/08/02 09:38:12;;;;;;;2.35;1.70;;;;;;;27.02;46.28;99889.78;5031534;28;20148;-77
2022/08/02 09:40:40;;;;;;;2.60;1.75;;;;;;;27.08;46.51;99887.25;5031998;28;20056;-77
2022/08/02 09:43:07;;;;;;;1.92;1.63;;;;;;;26.90;47.73;99891.16;5031665;28;20037;-77
2022/08/02 09:45:34;;;;;;;2.25;1.60;;;;;;;27.05;47.37;99895.63;5031637;28;20029;-77
2022/08/02 09:48:06;;;;;;;1.90;1.70;;;;;;;27.00;46.06;99891.78;5031506;28;20048;-77
2022/08/02 09:50:32;;;;;;;2.65;1.58;;;;;;;27.07;46.51;99892.78;5031772;28;20477;-77
2022/08/02 09:52:58;;;;;;;2.75;1.98;;;;;;;27.21;45.48;99899.25;5031423;28;20124;-77
2022/08/02 09:55:25;;;;;;;2.60;1.60;;;;;;;27.24;44.31;99878.38;5031564;28;20033;-77
2022/08/02 09:57:51;;;;;;;1.55;1.45;;;;;;;27.35;43.67;99888.69;5031319;28;20046;-77
2022/08/02 10:00:17;;;;;;;1.83;1.27;;;;;;;27.38;44.01;99890.16;5031689;28;20090;-77
2022/08/02 10:03:06;;;;;;;4.78;1.83;;;;;;;27.55;44.33;99882.91;5031547;28;20483;-77
2022/08/02 10:05:57;;;;;;;2.17;1.90;;;;;;;27.54;44.03;99892.78;5031190;28;20056;-76
2022/08/02 10:08:23;;;;;;;1.70;1.50;;;;;;;27.49;44.19;99900.50;5036491;28;20037;-77
2022/08/02 10:10:59;;;;;;;1.65;1.40;;;;;;;27.33;43.85;99888.03;5053922;28;20029;-77
2022/08/02 10:13:29;;;;;;;3.75;2.10;;;;;;;27.10;44.07;99887.13;5053836;28;20029;-77
2022/08/02 10:15:55;;;;;;;2.70;1.52;;;;;;;26.98;44.03;99891.13;5053438;28;20095;-77
2022/08/02 10:18:21;;;;;;;2.42;1.50;;;;;;;27.11;45.14;99889.63;5053505;28;20025;-77
2022/08/02 10:20:48;;;;;;;2.17;1.50;;;;;;;27.40;44.80;99890.00;5053411;28;20036;-76
2022/08/02 10:23:14;;;;;;;2.50;1.50;;;;;;;27.56;43.66;99880.06;5053419;28;20037;-77
2022/08/02 10:25:43;;;;;;;1.95;1.60;;;;;;;27.75;44.29;99884.16;5053267;28;20029;-77
2022/08/02 10:28:11;;;;;;;2.47;1.75;;;;;;;27.94;44.04;99874.84;5053146;28;20060;-77
2022/08/02 10:30:41;;;;;;;2.40;1.77;;;;;;;27.99;42.48;99871.63;5053270;28;20392;-77
2022/08/02 10:33:09;;;;;;;1.77;1.52;;;;;;;28.04;43.56;99871.91;5052995;28;20082;-77
2022/08/02 10:35:37;;;;;;;3.35;1.75;;;;;;;28.12;44.36;99871.03;5052976;28;20033;-77
2022/08/02 10:38:10;;;;;;;1.75;1.65;;;;;;;28.30;43.79;99880.41;5053275;28;20310;-77
2022/08/02 10:41:02;;;;;;;2.42;1.42;;;;;;;28.34;44.12;99880.88;5052956;28;20039;-77
2022/08/02 10:43:30;;;;;;;4.10;1.60;;;;;;;28.27;43.63;99882.59;4971996;28;20045;-77
2022/08/02 10:46:21;;;;;;;2.65;1.90;;;;;;;27.93;43.11;99885.72;4971565;28;20105;-77
2022/08/02 10:49:16;;;;;;;2.30;1.77;;;;;;;27.63;43.86;99882.03;4971928;28;20042;-76
2022/08/02 10:51:53;;;;;;;4.55;2.05;;;;;;;26.98;45.02;99875.09;4914271;29;20040;-77
2022/08/02 10:54:20;;;;;;;3.38;2.13;;;;;;;26.84;46.91;99871.28;4914158;29;20051;-78
2022/08/02 10:56:51;;;;;;;2.75;1.60;;;;;;;26.78;45.69;99870.13;4914253;29;20052;-77
2022/08/02 10:59:24;;;;;;;2.00;1.73;;;;;;;26.70;45.99;99885.34;4913942;29;20044;-77
2022/08/02 11:01:50;;;;;;;1.73;1.58;;;;;;;26.60;45.97;99866.84;4914049;29;20040;-77
2022/08/02 11:04:16;;;;;;;3.00;1.80;;;;;;;26.58;47.56;99875.00;4914284;29;20032;-77
2022/08/02 11:07:18;;;;;;;2.30;2.00;;;;;;;26.63;47.67;99879.84;4913755;29;20131;-77
2022/08/02 11:09:44;;;;;;;4.10;2.00;;;;;;;26.69;48.52;99878.34;4876358;29;20524;-77
2022/08/02 11:12:13;;;;;;;1.67;1.58;;;;;;;26.65;47.53;99861.81;4876142;29;20051;-78
2022/08/02 11:14:40;;;;;;;2.17;1.52;;;;;;;26.77;47.19;99855.09;4876398;29;20544;-78
2022/08/02 11:17:11;;;;;;;1.83;1.70;;;;;;;26.95;46.68;99854.06;4876089;29;20128;-77
2022/08/02 11:20:11;;;;;;;2.33;1.40;;;;;;;27.19;46.02;99854.00;4876384;29;20049;-76
2022/08/02 11:22:41;;;;;;;3.08;2.03;;;;;;;27.38;46.23;99839.34;4876241;29;20537;-77
2022/08/02 11:25:24;;;;;;;2.42;1.60;;;;;;;27.53;45.63;99850.16;4876084;29;20032;-77
2022/08/02 11:27:52;;;;;;;3.55;1.73;;;;;;;27.18;45.87;99848.81;4886883;29;20099;-77
2022/08/02 11:30:19;;;;;;;2.15;1.67;;;;;;;26.99;45.89;99842.84;4932519;29;20027;-78
2022/08/02 11:32:44;;;;;;;4.15;2.15;;;;;;;26.81;46.45;99848.41;4932690;29;20512;-78
2022/08/02 11:35:10;;;;;;;3.63;1.90;;;;;;;26.68;46.67;99845.44;4932190;29;20039;-77
2022/08/02 11:37:41;;;;;;;1.80;1.65;;;;;;;26.43;47.36;99835.78;4932577;29;20035;-77